Time;durP1;ratioP1;P1;durP2;ratioP2;P2;SDS_P1;SDS_P2;PMS_P1;PMS_P2;Temp;Humidity;BMP_temperature;BMP_pressure;BME280_temperature;BME280_humidity;BME280_pressure;Samples;Min_cycle;Max_cycle;Signal;HPM_P1;HPM_P2
2021/07/02 00:00:59;;;;;;;47.28;25.90;;;19.10;63.00;;;;;;5081372;28;20055;-75
2021/07/02 00:03:25;;;;;;;42.97;25.65;;;19.10;62.40;;;;;;5081960;28;20103;-75
2021/07/02 00:05:51;;;;;;;43.28;26.02;;;19.10;62.30;;;;;;5083211;28;20040;-76
2021/07/02 00:08:16;;;;;;;46.20;25.88;;;19.00;62.30;;;;;;5080671;28;20024;-75
2021/07/02 00:10:42;;;;;;;44.97;25.17;;;19.00;62.30;;;;;;5069513;28;20068;-75
2021/07/02 00:13:08;;;;;;;45.63;23.77;;;18.90;62.30;;;;;;5082179;28;20580;-75
2021/07/02 00:15:34;;;;;;;43.78;23.42;;;18.90;62.90;;;;;;5083063;28;20098;-75
2021/07/02 00:18:00;;;;;;;45.00;24.38;;;18.90;62.50;;;;;;5082785;28;20099;-75
2021/07/02 00:20:26;;;;;;;42.10;23.45;;;18.90;63.40;;;;;;5079061;28;20024;-75
2021/07/02 00:22:51;;;;;;;38.85;24.02;;;18.90;64.40;;;;;;5082409;28;20025;-75
2021/07/02 00:25:17;;;;;;;40.47;22.92;;;18.80;63.40;;;;;;5079161;28;20031;-75
2021/07/02 00:27:43;;;;;;;41.30;23.23;;;18.90;63.20;;;;;;5077662;28;20024;-75
2021/07/02 00:30:09;;;;;;;38.75;22.30;;;18.90;62.90;;;;;;5079495;28;20479;-75
2021/07/02 00:32:35;;;;;;;37.90;21.45;;;18.80;63.70;;;;;;5077814;28;20033;-75
2021/07/02 00:35:01;;;;;;;37.30;22.00;;;18.80;63.20;;;;;;5078832;28;20023;-75
2021/07/02 00:37:26;;;;;;;34.55;19.13;;;18.80;63.50;;;;;;5075451;28;20032;-75
2021/07/02 00:39:52;;;;;;;35.45;20.70;;;18.80;64.30;;;;;;5078430;28;20020;-75
2021/07/02 00:42:18;;;;;;;37.85;22.25;;;18.80;63.40;;;;;;5079045;28;20032;-75
2021/07/02 00:44:46;;;;;;;40.95;21.95;;;18.70;64.80;;;;;;5078053;28;20024;-75
2021/07/02 00:47:14;;;;;;;37.88;21.05;;;18.70;64.40;;;;;;5079106;28;20464;-74
2021/07/02 00:49:40;;;;;;;37.30;21.35;;;18.70;63.90;;;;;;5078416;28;20066;-75
2021/07/02 00:52:08;;;;;;;37.28;21.73;;;18.70;63.80;;;;;;5079190;28;20043;-75
2021/07/02 00:54:35;;;;;;;35.92;20.88;;;18.70;63.90;;;;;;5076406;28;20009;-75
2021/07/02 00:57:03;;;;;;;39.95;21.45;;;18.70;63.60;;;;;;5078703;28;20028;-75
2021/07/02 00:59:30;;;;;;;32.85;20.20;;;18.70;63.80;;;;;;5079493;28;20498;-75
2021/07/02 01:01:55;;;;;;;39.22;21.35;;;18.70;63.70;;;;;;5078477;28;20037;-75
2021/07/02 01:04:23;;;;;;;38.22;23.40;;;18.60;63.50;;;;;;5078777;28;20099;-75
2021/07/02 01:06:51;;;;;;;37.00;22.45;;;18.60;63.50;;;;;;5078049;28;20043;-74
2021/07/02 01:09:20;;;;;;;37.35;21.48;;;18.70;63.40;;;;;;5078782;28;20162;-75
2021/07/02 01:11:46;;;;;;;37.80;21.02;;;18.70;63.50;;;;;;5078405;28;20138;-75
2021/07/02 01:14:12;;;;;;;35.08;21.55;;;18.70;63.70;;;;;;5077991;28;20048;-75
2021/07/02 01:16:38;;;;;;;36.75;21.95;;;18.70;63.60;;;;;;5076883;28;20024;-74
2021/07/02 01:19:05;;;;;;;40.50;23.33;;;18.60;63.30;;;;;;5076371;28;20052;-75
2021/07/02 01:21:30;;;;;;;38.60;22.10;;;18.60;63.50;;;;;;5077458;28;20076;-75
2021/07/02 01:23:56;;;;;;;35.78;20.20;;;18.60;63.70;;;;;;5078979;28;20028;-75
2021/07/02 01:26:23;;;;;;;38.05;21.48;;;18.60;63.70;;;;;;5078194;28;20036;-74
2021/07/02 01:28:50;;;;;;;37.58;21.30;;;18.60;63.70;;;;;;5078102;28;20487;-75
2021/07/02 01:31:16;;;;;;;41.58;22.92;;;18.60;63.70;;;;;;5076872;28;20752;-75
2021/07/02 01:33:42;;;;;;;38.22;22.67;;;18.60;63.80;;;;;;5078016;28;20165;-75
2021/07/02 01:36:09;;;;;;;40.70;22.35;;;18.60;64.00;;;;;;5076798;28;20475;-75
2021/07/02 01:38:36;;;;;;;34.83;21.88;;;18.60;64.30;;;;;;5077458;28;20092;-75
2021/07/02 01:41:03;;;;;;;40.78;23.13;;;18.60;64.00;;;;;;5077566;28;20029;-75
2021/07/02 01:43:28;;;;;;;41.08;22.20;;;18.60;63.70;;;;;;5077574;28;22144;-74
2021/07/02 01:45:54;;;;;;;37.83;22.27;;;18.50;64.00;;;;;;5077907;28;20020;-75
2021/07/02 01:48:20;;;;;;;37.45;21.88;;;18.50;64.40;;;;;;5078132;28;20036;-75
2021/07/02 01:50:46;;;;;;;42.35;23.25;;;18.50;64.30;;;;;;5077560;28;20033;-75
2021/07/02 01:53:12;;;;;;;42.40;24.95;;;18.50;64.60;;;;;;5077179;28;20115;-74
2021/07/02 01:55:38;;;;;;;45.17;23.50;;;18.50;64.60;;;;;;5076534;28;20036;-75
2021/07/02 01:58:04;;;;;;;43.67;25.50;;;18.50;65.10;;;;;;5077393;28;20039;-75
2021/07/02 02:00:30;;;;;;;42.83;23.00;;;18.50;64.40;;;;;;5077238;28;20021;-75
2021/07/02 02:02:56;;;;;;;42.17;24.17;;;18.50;64.50;;;;;;5075483;28;20155;-74
2021/07/02 02:05:21;;;;;;;41.33;23.45;;;18.50;64.40;;;;;;5077041;28;20052;-75
2021/07/02 02:07:47;;;;;;;39.83;21.70;;;18.50;64.30;;;;;;5074366;28;20546;-75
2021/07/02 02:10:13;;;;;;;43.17;24.17;;;18.50;64.10;;;;;;5077689;28;20099;-74
2021/07/02 02:12:39;;;;;;;42.75;23.20;;;18.40;64.40;;;;;;5076326;28;20033;-74
2021/07/02 02:15:06;;;;;;;43.20;23.33;;;18.50;64.40;;;;;;5078095;28;20021;-75
2021/07/02 02:17:33;;;;;;;47.22;24.23;;;18.40;64.10;;;;;;5075983;28;20580;-75
2021/07/02 02:19:59;;;;;;;43.58;23.85;;;18.50;64.20;;;;;;5064761;28;20143;-74
2021/07/02 02:22:25;;;;;;;43.42;24.60;;;18.40;64.10;;;;;;5074289;28;20081;-74
2021/07/02 02:24:51;;;;;;;43.80;24.65;;;18.50;64.00;;;;;;5077695;28;20028;-74
2021/07/02 02:27:17;;;;;;;42.67;23.83;;;18.50;64.10;;;;;;5076574;28;20491;-74
2021/07/02 02:29:43;;;;;;;44.83;24.40;;;18.40;64.50;;;;;;5077135;28;20039;-75
2021/07/02 02:32:09;;;;;;;42.08;24.95;;;18.40;64.40;;;;;;5077328;28;20399;-75
2021/07/02 02:34:35;;;;;;;37.50;22.50;;;18.40;64.50;;;;;;5075586;28;20025;-74
2021/07/02 02:37:01;;;;;;;43.53;23.92;;;18.40;64.20;;;;;;5076799;28;20025;-74
2021/07/02 02:39:27;;;;;;;44.10;24.23;;;18.40;64.30;;;;;;5076569;28;20020;-74
2021/07/02 02:41:53;;;;;;;41.67;23.30;;;18.30;64.50;;;;;;5077095;28;20036;-74
2021/07/02 02:44:19;;;;;;;42.60;24.70;;;18.30;64.10;;;;;;5075912;28;20026;-74
2021/07/02 02:46:45;;;;;;;45.40;25.25;;;18.30;64.40;;;;;;5076574;28;20514;-75
2021/07/02 02:49:10;;;;;;;43.42;22.90;;;18.30;64.40;;;;;;5076226;28;20478;-74
2021/07/02 02:51:36;;;;;;;41.10;23.25;;;18.30;64.40;;;;;;5077077;28;20036;-75
2021/07/02 02:54:02;;;;;;;43.83;23.67;;;18.30;64.60;;;;;;5076283;28;20089;-74
2021/07/02 02:56:28;;;;;;;49.30;26.30;;;18.20;64.60;;;;;;5076921;28;20032;-74
2021/07/02 02:58:54;;;;;;;42.35;22.63;;;18.20;64.70;;;;;;5076602;28;20096;-74
2021/07/02 03:01:20;;;;;;;47.72;26.77;;;18.20;65.80;;;;;;5074311;28;20032;-74
2021/07/02 03:03:46;;;;;;;40.60;22.48;;;18.20;65.30;;;;;;5076577;28;20394;-75
2021/07/02 03:06:12;;;;;;;43.22;23.33;;;18.10;65.50;;;;;;5077419;28;20111;-74
2021/07/02 03:08:38;;;;;;;45.00;22.67;;;18.10;65.10;;;;;;5075136;28;20024;-75
2021/07/02 03:11:04;;;;;;;47.80;24.17;;;18.10;64.40;;;;;;5074674;28;20036;-74
2021/07/02 03:13:30;;;;;;;45.40;25.20;;;18.10;64.60;;;;;;5075831;28;20075;-74
2021/07/02 03:15:56;;;;;;;43.92;23.35;;;18.10;64.90;;;;;;5076347;28;20036;-74
2021/07/02 03:18:22;;;;;;;42.55;23.10;;;18.10;64.40;;;;;;5075485;28;20049;-74
2021/07/02 03:20:47;;;;;;;47.58;24.80;;;18.10;64.80;;;;;;5076299;28;20020;-75
2021/07/02 03:23:13;;;;;;;43.90;24.30;;;18.10;64.90;;;;;;5067703;28;20024;-75
2021/07/02 03:25:39;;;;;;;43.38;24.83;;;18.10;65.50;;;;;;5076272;28;20079;-75
2021/07/02 03:28:05;;;;;;;46.55;24.30;;;18.00;65.50;;;;;;5076528;28;20024;-75
2021/07/02 03:30:31;;;;;;;41.42;22.77;;;18.00;65.50;;;;;;5074856;28;20036;-75
2021/07/02 03:32:57;;;;;;;42.08;23.48;;;18.00;65.50;;;;;;5076022;28;20108;-75
2021/07/02 03:35:24;;;;;;;41.78;22.67;;;18.00;65.10;;;;;;5075417;28;20507;-75
2021/07/02 03:37:49;;;;;;;39.92;22.73;;;18.00;65.10;;;;;;5074600;28;20013;-74
2021/07/02 03:40:15;;;;;;;45.92;23.08;;;18.00;65.00;;;;;;5076490;28;20475;-74
2021/07/02 03:42:41;;;;;;;42.42;21.83;;;17.90;64.80;;;;;;5075978;28;20078;-74
2021/07/02 03:45:08;;;;;;;42.35;22.55;;;17.90;64.80;;;;;;5075644;28;20086;-74
2021/07/02 03:47:33;;;;;;;46.40;24.38;;;17.90;64.80;;;;;;5062564;28;20029;-74
2021/07/02 03:49:59;;;;;;;42.92;23.30;;;17.90;65.80;;;;;;5075249;28;20043;-74
2021/07/02 03:52:26;;;;;;;46.53;25.02;;;17.90;66.30;;;;;;5075942;28;20033;-74
2021/07/02 03:54:52;;;;;;;42.28;23.40;;;17.90;65.50;;;;;;5074743;28;20487;-75
2021/07/02 03:57:21;;;;;;;43.30;23.15;;;17.90;66.00;;;;;;5076741;28;20453;-74
2021/07/02 03:59:51;;;;;;;44.58;22.42;;;17.90;66.00;;;;;;5071098;28;20057;-74
2021/07/02 04:02:18;;;;;;;44.65;25.45;;;17.90;65.70;;;;;;5064903;28;20039;-74
2021/07/02 04:04:44;;;;;;;43.58;22.90;;;17.90;65.50;;;;;;5077135;28;20039;-74
2021/07/02 04:07:12;;;;;;;45.45;24.85;;;17.80;66.40;;;;;;5079820;28;20025;-74
2021/07/02 04:09:39;;;;;;;40.53;22.90;;;17.80;66.40;;;;;;5079510;28;20428;-74
2021/07/02 04:12:05;;;;;;;44.67;23.30;;;17.80;66.00;;;;;;5079649;28;20041;-74
2021/07/02 04:14:32;;;;;;;44.83;24.38;;;17.80;65.90;;;;;;5079614;28;20016;-74
2021/07/02 04:16:58;;;;;;;43.28;24.30;;;17.80;66.10;;;;;;5079646;28;20016;-74
2021/07/02 04:19:25;;;;;;;41.08;23.17;;;17.80;65.90;;;;;;5076553;28;20572;-74
2021/07/02 04:21:51;;;;;;;46.67;24.73;;;17.80;67.20;;;;;;5079471;28;20035;-74
2021/07/02 04:24:17;;;;;;;47.53;24.77;;;17.80;66.90;;;;;;5078598;28;20092;-74
2021/07/02 04:26:44;;;;;;;49.50;25.85;;;17.80;66.80;;;;;;5079426;28;20499;-74
2021/07/02 04:29:10;;;;;;;42.95;23.85;;;17.80;66.20;;;;;;5079633;28;20072;-74
2021/07/02 04:31:36;;;;;;;43.58;21.80;;;17.80;66.40;;;;;;5079059;28;20425;-74
2021/07/02 04:34:02;;;;;;;44.35;23.27;;;17.80;67.00;;;;;;5078061;28;20474;-74
2021/07/02 04:36:28;;;;;;;49.50;24.55;;;17.70;67.50;;;;;;5078695;28;20017;-75
2021/07/02 04:38:55;;;;;;;40.70;23.98;;;17.70;66.90;;;;;;5064806;28;20487;-74
2021/07/02 04:41:22;;;;;;;44.72;24.75;;;17.70;66.60;;;;;;5071015;28;20020;-74
2021/07/02 04:43:48;;;;;;;39.00;21.33;;;17.70;66.90;;;;;;5079814;28;20028;-74
2021/07/02 04:46:14;;;;;;;41.33;21.98;;;17.70;66.40;;;;;;5071022;28;20967;-75
2021/07/02 04:48:40;;;;;;;39.25;22.25;;;17.70;66.40;;;;;;5079440;28;20021;-74
2021/07/02 04:51:07;;;;;;;40.35;22.48;;;17.70;67.00;;;;;;5078432;28;20050;-74
2021/07/02 04:53:33;;;;;;;40.90;20.65;;;17.70;66.30;;;;;;5078910;28;20025;-74
2021/07/02 04:55:59;;;;;;;37.17;21.55;;;17.70;66.50;;;;;;5076976;28;20035;-74
2021/07/02 04:58:25;;;;;;;39.08;21.15;;;17.70;66.60;;;;;;5077219;28;20399;-74
2021/07/02 05:00:50;;;;;;;41.05;22.55;;;17.70;66.50;;;;;;5077798;28;20032;-74
2021/07/02 05:03:16;;;;;;;42.15;22.52;;;17.70;66.80;;;;;;5078810;28;20029;-74
2021/07/02 05:05:42;;;;;;;41.13;22.85;;;17.70;66.60;;;;;;5079027;28;20107;-74
2021/07/02 05:08:09;;;;;;;38.25;21.25;;;17.70;66.80;;;;;;5073726;28;20699;-74
2021/07/02 05:10:36;;;;;;;40.47;23.13;;;17.70;66.70;;;;;;5077393;28;20055;-74
2021/07/02 05:13:02;;;;;;;44.17;22.23;;;17.70;67.10;;;;;;5073896;28;20060;-74
2021/07/02 05:15:29;;;;;;;36.47;22.25;;;17.70;67.50;;;;;;5078981;28;20391;-74
2021/07/02 05:17:55;;;;;;;41.20;21.08;;;17.70;68.00;;;;;;5078100;28;20048;-74
2021/07/02 05:20:21;;;;;;;38.60;21.15;;;17.70;67.10;;;;;;5072314;28;20021;-74
2021/07/02 05:22:46;;;;;;;40.05;20.95;;;17.70;67.00;;;;;;5079031;28;20066;-74
2021/07/02 05:25:12;;;;;;;34.67;19.40;;;17.70;66.70;;;;;;5078286;28;20040;-74
2021/07/02 05:27:38;;;;;;;33.15;19.13;;;17.70;66.80;;;;;;5078066;28;20035;-75
2021/07/02 05:30:05;;;;;;;34.17;18.60;;;17.70;67.00;;;;;;5078922;28;20096;-74
2021/07/02 05:32:31;;;;;;;37.88;20.70;;;17.70;67.30;;;;;;5078117;28;20111;-74
2021/07/02 05:34:57;;;;;;;34.00;19.02;;;17.70;67.70;;;;;;5077576;28;20016;-75
2021/07/02 05:37:23;;;;;;;33.08;20.25;;;17.70;67.20;;;;;;5078018;28;20103;-75
2021/07/02 05:39:48;;;;;;;34.85;19.73;;;17.80;67.40;;;;;;5075566;28;20510;-74
2021/07/02 05:42:14;;;;;;;36.63;21.25;;;17.80;67.10;;;;;;5076471;28;20024;-74
2021/07/02 05:44:40;;;;;;;34.80;19.67;;;17.80;67.70;;;;;;5067628;28;20392;-74
2021/07/02 05:47:06;;;;;;;34.22;20.42;;;17.80;67.90;;;;;;5075652;28;20034;-75
2021/07/02 05:49:32;;;;;;;35.63;20.27;;;17.80;67.50;;;;;;5077941;28;20123;-75
2021/07/02 05:51:58;;;;;;;36.08;19.92;;;17.80;67.40;;;;;;5078020;28;20027;-74
2021/07/02 05:54:24;;;;;;;35.88;20.48;;;17.80;67.90;;;;;;5078366;28;20017;-74
2021/07/02 05:56:51;;;;;;;37.88;21.92;;;17.80;67.70;;;;;;5075849;28;20032;-74
2021/07/02 05:59:17;;;;;;;36.00;20.92;;;17.80;68.60;;;;;;5078267;28;20025;-76
2021/07/02 06:01:42;;;;;;;39.45;22.45;;;17.80;67.70;;;;;;5077180;28;20032;-75
2021/07/02 06:04:08;;;;;;;37.28;21.95;;;17.80;67.60;;;;;;5076260;28;20029;-75
2021/07/02 06:06:34;;;;;;;35.20;19.58;;;17.80;67.60;;;;;;5077131;28;20028;-76
2021/07/02 06:09:00;;;;;;;33.70;19.35;;;17.90;67.90;;;;;;5076702;28;20102;-75
2021/07/02 06:11:26;;;;;;;30.95;18.73;;;17.90;67.90;;;;;;5077273;28;20134;-77
2021/07/02 06:13:52;;;;;;;35.63;20.27;;;17.90;67.70;;;;;;5077240;28;20024;-77
2021/07/02 06:16:18;;;;;;;33.92;21.35;;;17.90;68.10;;;;;;5077800;28;20060;-72
2021/07/02 06:18:44;;;;;;;33.80;20.50;;;18.00;67.60;;;;;;5075613;28;20048;-74
2021/07/02 06:21:09;;;;;;;38.05;21.48;;;17.90;68.50;;;;;;5077382;28;20077;-72
2021/07/02 06:23:37;;;;;;;37.75;21.77;;;17.90;68.50;;;;;;5075904;28;20025;-71
2021/07/02 06:26:05;;;;;;;45.20;21.40;;;17.90;68.00;;;;;;5077424;28;20123;-73
2021/07/02 06:28:32;;;;;;;35.30;19.92;;;17.90;67.80;;;;;;5076573;28;20020;-70
2021/07/02 06:30:58;;;;;;;36.72;22.10;;;17.90;67.90;;;;;;5074369;28;20036;-72
2021/07/02 06:33:24;;;;;;;35.65;20.88;;;17.90;68.10;;;;;;5077107;28;20024;-70
2021/07/02 06:35:50;;;;;;;33.38;20.05;;;18.00;68.10;;;;;;5076421;28;20839;-69
2021/07/02 06:38:16;;;;;;;30.85;18.63;;;18.00;68.20;;;;;;5077495;28;20017;-68
2021/07/02 06:40:43;;;;;;;34.33;20.25;;;18.10;69.30;;;;;;5076835;28;20403;-71
2021/07/02 06:43:09;;;;;;;32.63;19.60;;;18.20;68.70;;;;;;5075040;28;20017;-70
2021/07/02 06:45:35;;;;;;;37.20;20.63;;;18.40;69.70;;;;;;5077302;28;20016;-71
2021/07/02 06:48:03;;;;;;;35.08;20.38;;;18.50;69.00;;;;;;5077296;28;20020;-72
2021/07/02 06:50:34;;;;;;;32.88;19.80;;;18.60;68.70;;;;;;5075662;28;20025;-72
2021/07/02 06:53:02;;;;;;;35.30;20.30;;;18.60;68.60;;;;;;5075958;28;20119;-73
2021/07/02 06:55:28;;;;;;;30.73;18.65;;;18.70;69.00;;;;;;5077034;28;20032;-72
2021/07/02 06:57:54;;;;;;;32.80;19.15;;;18.80;68.80;;;;;;5076311;28;20033;-74
2021/07/02 07:00:21;;;;;;;31.42;19.50;;;18.80;68.50;;;;;;5075363;28;20029;-72
2021/07/02 07:02:47;;;;;;;28.33;17.60;;;18.90;69.10;;;;;;5076950;28;20078;-84
2021/07/02 07:05:14;;;;;;;31.55;19.80;;;18.90;68.30;;;;;;5076813;28;20033;-76
2021/07/02 07:07:41;;;;;;;32.35;19.05;;;18.90;68.20;;;;;;5076439;28;20479;-71
2021/07/02 07:10:07;;;;;;;27.52;18.63;;;18.90;68.10;;;;;;5076500;28;20031;-71
2021/07/02 07:12:33;;;;;;;30.95;20.52;;;18.90;68.60;;;;;;5075619;28;20036;-71
2021/07/02 07:14:59;;;;;;;32.30;18.90;;;18.90;68.30;;;;;;5076123;28;20025;-70
2021/07/02 07:17:25;;;;;;;33.72;20.60;;;19.00;68.30;;;;;;5074956;28;20036;-73
2021/07/02 07:19:51;;;;;;;35.08;19.75;;;19.00;68.30;;;;;;5074554;28;20036;-71
2021/07/02 07:22:17;;;;;;;60.58;42.03;;;19.00;68.20;;;;;;5076374;28;20086;-72
2021/07/02 07:24:43;;;;;;;50.53;33.53;;;19.10;68.30;;;;;;5076709;28;20075;-72
2021/07/02 07:27:10;;;;;;;39.92;24.15;;;19.10;68.20;;;;;;5079801;28;20033;-71
2021/07/02 07:29:35;;;;;;;36.67;20.98;;;19.10;68.30;;;;;;5076462;28;20017;-72
2021/07/02 07:32:01;;;;;;;32.58;19.48;;;19.10;68.40;;;;;;5076595;28;20036;-73
2021/07/02 07:34:35;;;;;;;37.58;22.17;;;19.10;68.20;;;;;;5077439;28;20091;-75
2021/07/02 07:37:06;;;;;;;34.88;21.63;;;19.20;68.50;;;;;;5078148;28;20517;-72
2021/07/02 07:39:32;;;;;;;36.40;22.02;;;19.20;69.30;;;;;;5080731;28;20488;-79
2021/07/02 07:41:58;;;;;;;32.35;21.13;;;19.50;69.40;;;;;;5080356;28;20136;-72
2021/07/02 07:44:24;;;;;;;36.60;21.92;;;19.80;70.50;;;;;;5075316;28;20021;-73
2021/07/02 07:46:50;;;;;;;31.17;19.73;;;20.30;71.80;;;;;;5079236;28;20033;-74
2021/07/02 07:49:16;;;;;;;28.48;18.88;;;20.80;72.00;;;;;;5080732;28;20438;-71
2021/07/02 07:51:48;;;;;;;29.33;19.15;;;21.20;70.30;;;;;;5079211;28;20431;-74
2021/07/02 07:54:14;;;;;;;32.38;22.10;;;21.50;69.90;;;;;;5079034;28;20126;-76
2021/07/02 07:56:50;;;;;;;36.15;26.50;;;21.70;70.00;;;;;;5079458;28;20017;-72
2021/07/02 07:59:19;;;;;;;29.15;18.92;;;21.90;69.50;;;;;;5080369;28;20073;-72
2021/07/02 08:01:45;;;;;;;27.17;18.80;;;22.00;68.50;;;;;;5078782;28;20032;-73
2021/07/02 08:04:14;;;;;;;29.30;19.48;;;22.10;67.60;;;;;;5080009;28;20040;-75
2021/07/02 08:06:40;;;;;;;27.65;19.38;;;22.00;67.80;;;;;;5079039;28;20103;-72
2021/07/02 08:09:06;;;;;;;29.45;19.70;;;21.90;67.00;;;;;;5080549;28;20078;-72
2021/07/02 08:11:32;;;;;;;28.77;20.55;;;21.90;66.70;;;;;;5079253;28;20441;-70
2021/07/02 08:13:59;;;;;;;33.15;20.30;;;21.80;66.90;;;;;;5077252;28;20052;-72
2021/07/02 08:16:25;;;;;;;28.48;19.90;;;21.80;66.90;;;;;;5079480;28;20013;-73
2021/07/02 08:18:52;;;;;;;27.77;19.42;;;21.80;66.80;;;;;;5079071;28;20052;-73
2021/07/02 08:21:18;;;;;;;32.97;20.23;;;21.70;66.60;;;;;;5078409;28;20020;-73
2021/07/02 08:23:44;;;;;;;31.35;20.27;;;21.70;66.60;;;;;;5076605;28;20028;-73
2021/07/02 08:26:12;;;;;;;31.33;19.65;;;21.60;66.20;;;;;;5079237;28;21914;-74
2021/07/02 08:31:22;;;;;;;32.83;20.92;;;21.60;66.00;;;;;;5077620;28;20078;-74
2021/07/02 08:33:48;;;;;;;29.60;19.45;;;21.60;66.30;;;;;;5079871;28;20076;-77
2021/07/02 08:36:14;;;;;;;29.17;20.02;;;21.60;66.30;;;;;;5079864;28;20016;-78
2021/07/02 08:38:40;;;;;;;28.38;19.88;;;21.70;66.30;;;;;;5078897;28;20016;-77
2021/07/02 08:41:11;;;;;;;30.45;20.80;;;21.80;66.50;;;;;;5075637;28;20479;-78
2021/07/02 08:43:37;;;;;;;30.50;20.73;;;21.80;66.40;;;;;;5073224;28;20120;-80
2021/07/02 08:46:03;;;;;;;29.10;19.40;;;21.80;66.00;;;;;;5076723;28;20120;-81
2021/07/02 08:48:30;;;;;;;29.40;20.85;;;21.80;66.50;;;;;;5076781;28;20067;-77
2021/07/02 08:50:56;;;;;;;28.30;20.15;;;21.90;66.30;;;;;;5078163;28;20035;-79
2021/07/02 08:53:22;;;;;;;33.75;22.45;;;22.10;67.10;;;;;;5079004;28;20028;-79
2021/07/02 08:55:50;;;;;;;28.80;20.70;;;22.50;67.50;;;;;;5079611;28;20012;-79
2021/07/02 08:58:16;;;;;;;34.33;22.65;;;22.90;66.80;;;;;;5079473;28;20025;-80
2021/07/02 09:00:57;;;;;;;26.73;21.33;;;23.30;66.70;;;;;;5079490;28;20028;-76
2021/07/02 09:03:27;;;;;;;26.75;20.13;;;23.60;65.10;;;;;;5066932;28;20418;-77
2021/07/02 09:05:53;;;;;;;32.47;24.02;;;23.90;65.30;;;;;;5077277;28;20517;-80
2021/07/02 09:08:19;;;;;;;71.93;52.13;;;24.10;64.70;;;;;;5079300;28;20028;-81
2021/07/02 09:10:47;;;;;;;46.50;38.88;;;24.20;65.30;;;;;;5078225;28;20020;-81
2021/07/02 09:13:14;;;;;;;31.92;23.77;;;24.30;64.50;;;;;;5078464;28;20368;-80
2021/07/02 09:15:46;;;;;;;29.10;22.23;;;24.30;62.90;;;;;;5077013;28;20502;-80
2021/07/02 09:18:12;;;;;;;32.70;24.27;;;24.30;62.70;;;;;;5075989;28;20108;-78
2021/07/02 09:20:40;;;;;;;31.38;23.88;;;24.20;62.80;;;;;;5076280;28;20071;-83
2021/07/02 09:23:11;;;;;;;32.78;23.77;;;24.10;63.40;;;;;;5079194;28;20047;-81
2021/07/02 09:25:39;;;;;;;32.63;23.58;;;24.10;64.00;;;;;;5078955;28;20029;-82
2021/07/02 09:28:13;;;;;;;28.52;22.83;;;24.20;63.70;;;;;;5077669;28;20023;-80
2021/07/02 09:30:47;;;;;;;30.90;23.48;;;24.20;62.70;;;;;;5078966;28;20047;-76
2021/07/02 09:33:18;;;;;;;34.67;23.90;;;24.30;61.60;;;;;;5078303;28;20024;-79
2021/07/02 09:35:53;;;;;;;29.08;22.00;;;24.40;61.90;;;;;;5078128;28;20021;-75
2021/07/02 09:38:40;;;;;;;30.08;22.55;;;24.50;60.50;;;;;;5074011;28;20029;-81
2021/07/02 09:41:08;;;;;;;30.67;23.50;;;24.50;62.60;;;;;;5075059;28;20131;-82
2021/07/02 09:43:34;;;;;;;29.05;22.67;;;24.80;64.00;;;;;;5078280;28;20020;-82
2021/07/02 09:46:04;;;;;;;28.65;23.08;;;24.90;63.30;;;;;;5074391;28;20468;-81
2021/07/02 09:48:32;;;;;;;28.83;23.15;;;25.00;62.50;;;;;;5078643;28;20029;-65
2021/07/02 09:50:59;;;;;;;30.10;22.35;;;25.00;61.00;;;;;;5077174;28;20475;-64
2021/07/02 09:53:30;;;;;;;27.60;22.05;;;24.90;61.90;;;;;;5078685;28;20418;-64
2021/07/02 09:56:07;;;;;;;29.80;22.30;;;24.80;60.40;;;;;;5073487;28;20025;-65
2021/07/02 09:58:40;;;;;;;27.00;21.55;;;24.60;60.80;;;;;;5077160;28;20023;-65
2021/07/02 10:01:08;;;;;;;28.70;21.90;;;24.50;61.10;;;;;;5078429;28;20028;-66
2021/07/02 10:03:36;;;;;;;27.98;20.30;;;24.30;60.60;;;;;;5077586;28;20454;-65
2021/07/02 10:06:14;;;;;;;30.27;20.20;;;24.30;61.30;;;;;;5078249;28;20052;-65
2021/07/02 10:08:40;;;;;;;29.73;21.38;;;24.00;61.20;;;;;;5077565;28;20099;-65
2021/07/02 10:11:09;;;;;;;30.38;22.17;;;23.90;61.50;;;;;;5077368;28;20032;-68
2021/07/02 10:13:43;;;;;;;26.70;21.08;;;23.70;61.80;;;;;;5079210;28;20027;-66
2021/07/02 10:16:10;;;;;;;28.75;21.77;;;23.60;62.00;;;;;;5077458;28;20031;-66
2021/07/02 10:18:49;;;;;;;34.15;26.42;;;23.60;62.40;;;;;;5076536;28;20040;-65
2021/07/02 10:21:16;;;;;;;36.47;25.90;;;23.70;61.90;;;;;;5074282;28;20059;-63
2021/07/02 10:23:46;;;;;;;32.72;25.63;;;23.70;61.40;;;;;;5077035;28;20028;-62
2021/07/02 10:26:17;;;;;;;29.55;20.83;;;23.60;61.80;;;;;;5077486;28;20043;-62
2021/07/02 10:28:44;;;;;;;31.88;20.67;;;23.60;61.50;;;;;;5077458;28;20032;-62
2021/07/02 10:31:10;;;;;;;28.30;20.30;;;23.60;62.80;;;;;;5080461;28;20399;-62
2021/07/02 10:33:50;;;;;;;31.65;20.92;;;23.90;63.00;;;;;;5077087;28;20514;-62
2021/07/02 10:36:17;;;;;;;24.67;18.67;;;24.20;63.00;;;;;;5077882;28;20475;-62
2021/07/02 10:38:49;;;;;;;27.48;19.42;;;24.60;63.60;;;;;;5070456;28;20055;-64
2021/07/02 10:41:26;;;;;;;26.87;18.53;;;25.20;63.50;;;;;;5074653;28;20394;-66
2021/07/02 10:44:08;;;;;;;22.98;18.48;;;25.60;63.20;;;;;;5077001;28;20029;-70
2021/07/02 10:46:39;;;;;;;23.50;17.27;;;25.70;60.40;;;;;;5075013;28;20047;-70
2021/07/02 10:49:09;;;;;;;25.25;18.13;;;25.70;60.00;;;;;;5076000;28;20044;-70
2021/07/02 10:51:36;;;;;;;36.47;26.95;;;25.60;61.20;;;;;;5074541;28;20487;-69
2021/07/02 10:54:17;;;;;;;30.67;23.48;;;25.40;60.50;;;;;;5081307;28;20439;-70
2021/07/02 10:56:49;;;;;;;28.70;21.93;;;25.30;60.10;;;;;;5079903;28;20024;-70
2021/07/02 10:59:17;;;;;;;27.20;19.30;;;25.20;60.30;;;;;;5076485;28;20051;-69
2021/07/02 11:02:12;;;;;;;24.75;17.13;;;25.20;61.10;;;;;;5075979;28;20510;-68
2021/07/02 11:04:47;;;;;;;24.77;17.65;;;25.10;60.00;;;;;;5076016;28;20075;-69
2021/07/02 11:07:19;;;;;;;22.98;17.00;;;25.00;60.80;;;;;;5077711;28;20043;-69
2021/07/02 11:09:48;;;;;;;;;;;24.90;61.10;;;;;;5077103;28;20036;-70
2021/07/02 11:12:16;;;;;;;24.35;17.75;;;24.80;60.70;;;;;;5076492;28;20348;-70
2021/07/02 11:14:54;;;;;;;23.90;18.10;;;24.60;60.80;;;;;;5076854;28;20070;-69
2021/07/02 11:17:30;;;;;;;22.75;16.70;;;24.40;60.80;;;;;;5064856;28;20132;-69
2021/07/02 11:20:06;;;;;;;21.85;15.25;;;24.40;60.20;;;;;;5069937;28;20086;-69
2021/07/02 11:22:40;;;;;;;22.00;16.30;;;24.40;61.00;;;;;;5076156;28;20149;-68
2021/07/02 11:25:13;;;;;;;23.05;17.27;;;24.30;60.60;;;;;;5072382;28;20032;-69
2021/07/02 11:27:49;;;;;;;22.25;17.15;;;24.30;60.80;;;;;;5076180;28;20025;-69
2021/07/02 11:30:38;;;;;;;20.95;15.70;;;24.30;60.40;;;;;;5076263;28;20028;-69
2021/07/02 11:33:21;;;;;;;22.35;15.85;;;24.30;61.00;;;;;;5075679;28;20029;-69
2021/07/02 11:35:54;;;;;;;22.83;16.50;;;24.30;60.60;;;;;;5074037;28;20372;-69
2021/07/02 11:38:21;;;;;;;21.75;15.63;;;24.20;60.90;;;;;;5077012;28;20025;-69
2021/07/02 11:40:53;;;;;;;21.75;16.65;;;24.40;60.90;;;;;;5075830;28;20021;-70
2021/07/02 11:43:29;;;;;;;22.42;15.25;;;24.50;60.80;;;;;;5075848;28;20050;-68
2021/07/02 11:45:56;;;;;;;22.42;16.20;;;24.50;60.70;;;;;;5073510;28;20059;-70
2021/07/02 11:48:25;;;;;;;21.05;16.48;;;24.60;61.30;;;;;;5073945;28;20092;-70
2021/07/02 11:50:52;;;;;;;23.27;15.85;;;24.70;60.70;;;;;;5076002;28;20025;-69
2021/07/02 11:53:32;;;;;;;24.67;17.63;;;24.80;59.50;;;;;;5076532;28;20108;-68
2021/07/02 11:56:00;;;;;;;25.58;17.38;;;24.70;59.40;;;;;;5075661;28;20025;-69
2021/07/02 11:58:35;;;;;;;23.63;16.42;;;24.70;59.80;;;;;;5076196;28;20045;-69
2021/07/02 12:01:08;;;;;;;25.05;16.83;;;24.70;59.60;;;;;;5074481;28;20021;-69
2021/07/02 12:03:36;;;;;;;26.00;18.30;;;24.80;60.40;;;;;;5076110;28;20070;-71
2021/07/02 12:06:05;;;;;;;23.38;17.35;;;24.90;60.80;;;;;;5075840;28;20029;-68
2021/07/02 12:08:34;;;;;;;21.08;16.27;;;24.90;60.00;;;;;;5075842;28;20029;-78
2021/07/02 12:11:05;;;;;;;24.27;16.45;;;24.80;60.20;;;;;;5074068;28;20036;-69
2021/07/02 12:13:33;;;;;;;23.98;16.35;;;24.80;59.80;;;;;;5075673;28;20028;-68
2021/07/02 12:16:10;;;;;;;20.75;15.65;;;24.70;59.50;;;;;;5074712;28;20020;-67
2021/07/02 12:18:39;;;;;;;22.40;15.20;;;24.60;59.60;;;;;;5065969;28;20055;-67
2021/07/02 12:21:10;;;;;;;20.30;14.75;;;24.60;60.20;;;;;;5076724;28;20538;-67
2021/07/02 12:23:38;;;;;;;24.10;18.27;;;24.60;60.70;;;;;;5079881;28;20052;-67
2021/07/02 12:26:19;;;;;;;28.02;23.15;;;24.40;60.60;;;;;;5077825;28;20024;-67
2021/07/02 12:29:05;;;;;;;28.98;23.25;;;24.40;60.00;;;;;;5078084;28;20032;-67
2021/07/02 12:31:47;;;;;;;21.55;14.77;;;24.20;59.60;;;;;;5079561;28;20021;-67
2021/07/02 12:34:21;;;;;;;22.17;15.18;;;24.10;60.00;;;;;;5078598;28;20479;-68